Ringgold, Texas
Current Conditions -  °F | °C
As of 3:55 PM on Friday 31 Oct 2014 (Local Time) from K0F2 Reporting Station
Clear Clear  
Wind Chill: 63°   Ceiling: Unl
Heat Index: 63°   Visibility: 10mi
Dew Point: 38°   Wind: 12mph
Humidity: 40%   Direction: 350°N
Pressure: 30.32"   Gusts: NA
Location:  33.82°N, 97.94°W
Report Text: K0F2 312055Z AUTO 35010KT 10SM CLR 17/03 A3032 RMK AO2 T01710034
Loading
Personal Weather Stations






























Interactive Weather Map
Tropical Storm Tracking
New forecast layout! Learn more

10-Day Weather Forecast

Advertisements
Track Severe Weather on mobile